sensor_id;sensor_type;location;lat;lon;timestamp;temperature;humidity
2489;DHT22;1255;48.716;9.124;2022-11-15T00:00:28;6.60;99.90
2489;DHT22;1255;48.716;9.124;2022-11-15T00:02:54;6.60;99.90
2489;DHT22;1255;48.716;9.124;2022-11-15T00:05:22;6.70;99.90
2489;DHT22;1255;48.716;9.124;2022-11-15T00:07:48;6.70;99.90
2489;DHT22;1255;48.716;9.124;2022-11-15T00:10:15;6.70;99.90
2489;DHT22;1255;48.716;9.124;2022-11-15T00:12:43;6.70;99.90
2489;DHT22;1255;48.716;9.124;2022-11-15T00:15:10;6.60;99.90
2489;DHT22;1255;48.716;9.124;2022-11-15T00:17:37;6.70;99.90
2489;DHT22;1255;48.716;9.124;2022-11-15T00:20:04;6.70;99.90
2489;DHT22;1255;48.716;9.124;2022-11-15T00:22:32;6.70;99.90
2489;DHT22;1255;48.716;9.124;2022-11-15T00:24:58;6.70;99.90
2489;DHT22;1255;48.716;9.124;2022-11-15T00:27:25;6.70;99.90
2489;DHT22;1255;48.716;9.124;2022-11-15T00:29:54;6.70;99.90
2489;DHT22;1255;48.716;9.124;2022-11-15T00:32:20;6.80;99.90
2489;DHT22;1255;48.716;9.124;2022-11-15T00:34:47;6.80;99.90
2489;DHT22;1255;48.716;9.124;2022-11-15T00:37:14;6.80;99.90
2489;DHT22;1255;48.716;9.124;2022-11-15T00:39:40;6.90;99.90
2489;DHT22;1255;48.716;9.124;2022-11-15T00:42:07;6.90;99.90
2489;DHT22;1255;48.716;9.124;2022-11-15T00:44:34;6.90;99.90
2489;DHT22;1255;48.716;9.124;2022-11-15T00:47:02;6.90;99.90
2489;DHT22;1255;48.716;9.124;2022-11-15T00:49:29;6.90;99.90
2489;DHT22;1255;48.716;9.124;2022-11-15T00:51:56;6.90;99.90
2489;DHT22;1255;48.716;9.124;2022-11-15T00:54:22;7.00;99.90
2489;DHT22;1255;48.716;9.124;2022-11-15T00:56:49;6.90;99.90
2489;DHT22;1255;48.716;9.124;2022-11-15T00:59:16;7.00;99.90
2489;DHT22;1255;48.716;9.124;2022-11-15T01:01:43;6.90;99.90
2489;DHT22;1255;48.716;9.124;2022-11-15T01:04:11;7.00;99.90
2489;DHT22;1255;48.716;9.124;2022-11-15T01:06:37;7.00;99.90
2489;DHT22;1255;48.716;9.124;2022-11-15T01:09:04;7.00;99.90
2489;DHT22;1255;48.716;9.124;2022-11-15T01:11:31;7.00;99.90
2489;DHT22;1255;48.716;9.124;2022-11-15T01:13:58;6.90;99.90
2489;DHT22;1255;48.716;9.124;2022-11-15T01:16:24;6.90;99.90
2489;DHT22;1255;48.716;9.124;2022-11-15T01:18:51;6.90;99.90
2489;DHT22;1255;48.716;9.124;2022-11-15T01:21:20;6.90;99.90
2489;DHT22;1255;48.716;9.124;2022-11-15T01:23:47;6.90;99.90
2489;DHT22;1255;48.716;9.124;2022-11-15T01:26:15;6.90;99.90
2489;DHT22;1255;48.716;9.124;2022-11-15T01:28:42;6.80;99.90
2489;DHT22;1255;48.716;9.124;2022-11-15T01:31:12;6.80;99.90
2489;DHT22;1255;48.716;9.124;2022-11-15T01:33:39;6.70;99.90
2489;DHT22;1255;48.716;9.124;2022-11-15T01:36:07;6.70;99.90
2489;DHT22;1255;48.716;9.124;2022-11-15T01:38:38;6.70;99.90
2489;DHT22;1255;48.716;9.124;2022-11-15T01:41:05;6.60;99.90
2489;DHT22;1255;48.716;9.124;2022-11-15T01:43:34;6.60;99.90
2489;DHT22;1255;48.716;9.124;2022-11-15T01:46:09;6.60;99.90
2489;DHT22;1255;48.716;9.124;2022-11-15T01:48:40;6.60;99.90
2489;DHT22;1255;48.716;9.124;2022-11-15T01:51:10;6.50;99.90
2489;DHT22;1255;48.716;9.124;2022-11-15T01:53:42;6.40;99.90
2489;DHT22;1255;48.716;9.124;2022-11-15T01:56:13;6.40;99.90
2489;DHT22;1255;48.716;9.124;2022-11-15T01:58:44;6.30;99.90
2489;DHT22;1255;48.716;9.124;2022-11-15T02:01:28;6.30;99.90
2489;DHT22;1255;48.716;9.124;2022-11-15T02:04:10;6.30;99.90
2489;DHT22;1255;48.716;9.124;2022-11-15T02:06:40;6.20;99.90
2489;DHT22;1255;48.716;9.124;2022-11-15T02:09:09;6.20;99.90
2489;DHT22;1255;48.716;9.124;2022-11-15T02:11:37;6.20;99.90
2489;DHT22;1255;48.716;9.124;2022-11-15T02:14:05;6.20;99.90
2489;DHT22;1255;48.716;9.124;2022-11-15T02:16:41;6.10;99.90
2489;DHT22;1255;48.716;9.124;2022-11-15T02:19:28;6.10;99.90
2489;DHT22;1255;48.716;9.124;2022-11-15T02:22:13;6.00;99.90
2489;DHT22;1255;48.716;9.124;2022-11-15T02:25:16;6.00;99.90
2489;DHT22;1255;48.716;9.124;2022-11-15T02:28:21;5.90;99.90
2489;DHT22;1255;48.716;9.124;2022-11-15T02:31:04;6.00;99.90
2489;DHT22;1255;48.716;9.124;2022-11-15T02:33:38;5.90;99.90
2489;DHT22;1255;48.716;9.124;2022-11-15T02:36:11;5.90;99.90
2489;DHT22;1255;48.716;9.124;2022-11-15T02:38:50;5.90;99.90
2489;DHT22;1255;48.716;9.124;2022-11-15T02:41:27;5.90;99.90
2489;DHT22;1255;48.716;9.124;2022-11-15T02:44:02;5.90;99.90
2489;DHT22;1255;48.716;9.124;2022-11-15T02:46:36;5.90;99.90
2489;DHT22;1255;48.716;9.124;2022-11-15T02:49:25;5.90;99.90
2489;DHT22;1255;48.716;9.124;2022-11-15T02:51:56;5.90;99.90
2489;DHT22;1255;48.716;9.124;2022-11-15T02:54:52;5.90;99.90
2489;DHT22;1255;48.716;9.124;2022-11-15T02:57:35;5.90;99.90
2489;DHT22;1255;48.716;9.124;2022-11-15T03:00:17;5.90;99.90
2489;DHT22;1255;48.716;9.124;2022-11-15T03:05:56;5.90;99.90
2489;DHT22;1255;48.716;9.124;2022-11-15T03:08:29;5.80;99.90
2489;DHT22;1255;48.716;9.124;2022-11-15T03:11:03;5.80;99.90
2489;DHT22;1255;48.716;9.124;2022-11-15T03:13:38;5.80;99.90
2489;DHT22;1255;48.716;9.124;2022-11-15T03:16:10;5.80;99.90
2489;DHT22;1255;48.716;9.124;2022-11-15T03:18:45;5.80;99.90
2489;DHT22;1255;48.716;9.124;2022-11-15T03:21:14;5.80;99.90
2489;DHT22;1255;48.716;9.124;2022-11-15T03:23:43;5.70;99.90
2489;DHT22;1255;48.716;9.124;2022-11-15T03:26:12;5.70;99.90
2489;DHT22;1255;48.716;9.124;2022-11-15T03:28:44;5.80;99.90
2489;DHT22;1255;48.716;9.124;2022-11-15T03:31:15;5.70;99.90
2489;DHT22;1255;48.716;9.124;2022-11-15T03:34:03;5.80;99.90
2489;DHT22;1255;48.716;9.124;2022-11-15T03:36:32;5.80;99.90
2489;DHT22;1255;48.716;9.124;2022-11-15T03:39:02;5.80;99.90
2489;DHT22;1255;48.716;9.124;2022-11-15T03:41:35;5.80;99.90
2489;DHT22;1255;48.716;9.124;2022-11-15T03:44:11;5.80;99.90
2489;DHT22;1255;48.716;9.124;2022-11-15T03:46:43;5.80;99.90
2489;DHT22;1255;48.716;9.124;2022-11-15T03:49:17;5.90;99.90
2489;DHT22;1255;48.716;9.124;2022-11-15T03:51:46;5.90;99.90
2489;DHT22;1255;48.716;9.124;2022-11-15T03:54:13;5.90;99.90
2489;DHT22;1255;48.716;9.124;2022-11-15T03:56:40;5.90;99.90
2489;DHT22;1255;48.716;9.124;2022-11-15T03:59:07;5.90;99.90
2489;DHT22;1255;48.716;9.124;2022-11-15T04:01:34;5.90;99.90
2489;DHT22;1255;48.716;9.124;2022-11-15T04:04:00;5.90;99.90
2489;DHT22;1255;48.716;9.124;2022-11-15T04:06:28;6.00;99.90
2489;DHT22;1255;48.716;9.124;2022-11-15T04:08:55;6.00;99.90
2489;DHT22;1255;48.716;9.124;2022-11-15T04:11:22;5.90;99.90
2489;DHT22;1255;48.716;9.124;2022-11-15T04:13:48;6.00;99.90
2489;DHT22;1255;48.716;9.124;2022-11-15T04:16:15;6.00;99.90
2489;DHT22;1255;48.716;9.124;2022-11-15T04:18:42;6.00;99.90
2489;DHT22;1255;48.716;9.124;2022-11-15T04:21:09;6.00;99.90
2489;DHT22;1255;48.716;9.124;2022-11-15T04:23:54;6.00;99.90
2489;DHT22;1255;48.716;9.124;2022-11-15T04:26:39;6.00;99.90
2489;DHT22;1255;48.716;9.124;2022-11-15T04:29:06;6.00;99.90
2489;DHT22;1255;48.716;9.124;2022-11-15T04:31:50;5.90;99.90
2489;DHT22;1255;48.716;9.124;2022-11-15T04:34:16;6.00;99.90
2489;DHT22;1255;48.716;9.124;2022-11-15T04:36:43;6.00;99.90
2489;DHT22;1255;48.716;9.124;2022-11-15T04:39:29;5.90;99.90
2489;DHT22;1255;48.716;9.124;2022-11-15T04:41:55;5.90;99.90
2489;DHT22;1255;48.716;9.124;2022-11-15T04:44:22;5.90;99.90
2489;DHT22;1255;48.716;9.124;2022-11-15T04:46:49;5.90;99.90
2489;DHT22;1255;48.716;9.124;2022-11-15T04:49:16;5.90;99.90
2489;DHT22;1255;48.716;9.124;2022-11-15T04:51:42;5.90;99.90
2489;DHT22;1255;48.716;9.124;2022-11-15T04:54:09;6.00;99.90
2489;DHT22;1255;48.716;9.124;2022-11-15T04:56:37;5.90;99.90
2489;DHT22;1255;48.716;9.124;2022-11-15T04:59:04;5.90;99.90
2489;DHT22;1255;48.716;9.124;2022-11-15T05:01:31;5.90;99.90
2489;DHT22;1255;48.716;9.124;2022-11-15T05:03:58;5.90;99.90
2489;DHT22;1255;48.716;9.124;2022-11-15T05:06:42;5.90;99.90
2489;DHT22;1255;48.716;9.124;2022-11-15T05:09:08;5.90;99.90
2489;DHT22;1255;48.716;9.124;2022-11-15T05:11:37;5.90;99.90
2489;DHT22;1255;48.716;9.124;2022-11-15T05:14:03;5.90;99.90
2489;DHT22;1255;48.716;9.124;2022-11-15T05:16:30;5.90;99.90
2489;DHT22;1255;48.716;9.124;2022-11-15T05:18:57;5.90;99.90
2489;DHT22;1255;48.716;9.124;2022-11-15T05:21:24;5.90;99.90
2489;DHT22;1255;48.716;9.124;2022-11-15T05:23:50;5.90;99.90
2489;DHT22;1255;48.716;9.124;2022-11-15T05:26:18;5.80;99.90
2489;DHT22;1255;48.716;9.124;2022-11-15T05:28:46;5.80;99.90
2489;DHT22;1255;48.716;9.124;2022-11-15T05:31:14;5.90;99.90
2489;DHT22;1255;48.716;9.124;2022-11-15T05:33:42;5.80;99.90
2489;DHT22;1255;48.716;9.124;2022-11-15T05:36:13;5.90;99.90
2489;DHT22;1255;48.716;9.124;2022-11-15T05:38:41;5.90;99.90
2489;DHT22;1255;48.716;9.124;2022-11-15T05:41:08;5.90;99.90
2489;DHT22;1255;48.716;9.124;2022-11-15T05:43:36;5.90;99.90
2489;DHT22;1255;48.716;9.124;2022-11-15T05:46:07;5.90;99.90
2489;DHT22;1255;48.716;9.124;2022-11-15T05:48:34;5.90;99.90
2489;DHT22;1255;48.716;9.124;2022-11-15T05:51:03;5.90;99.90
2489;DHT22;1255;48.716;9.124;2022-11-15T05:53:31;5.90;99.90
2489;DHT22;1255;48.716;9.124;2022-11-15T05:55:58;5.90;99.90
2489;DHT22;1255;48.716;9.124;2022-11-15T05:58:25;5.90;99.90
2489;DHT22;1255;48.716;9.124;2022-11-15T06:00:52;5.90;99.90
2489;DHT22;1255;48.716;9.124;2022-11-15T06:03:20;5.90;99.90
2489;DHT22;1255;48.716;9.124;2022-11-15T06:05:46;5.90;99.90
2489;DHT22;1255;48.716;9.124;2022-11-15T06:08:13;5.90;99.90
2489;DHT22;1255;48.716;9.124;2022-11-15T06:10:40;5.80;99.90
2489;DHT22;1255;48.716;9.124;2022-11-15T06:13:06;5.80;99.90
2489;DHT22;1255;48.716;9.124;2022-11-15T06:15:33;5.80;99.90
2489;DHT22;1255;48.716;9.124;2022-11-15T06:18:00;5.80;99.90
2489;DHT22;1255;48.716;9.124;2022-11-15T06:20:30;5.80;99.90
2489;DHT22;1255;48.716;9.124;2022-11-15T06:22:57;5.80;99.90
2489;DHT22;1255;48.716;9.124;2022-11-15T06:25:24;5.80;99.90
2489;DHT22;1255;48.716;9.124;2022-11-15T06:27:51;5.70;99.90
2489;DHT22;1255;48.716;9.124;2022-11-15T06:30:19;5.70;99.90
2489;DHT22;1255;48.716;9.124;2022-11-15T06:32:45;5.70;99.90
2489;DHT22;1255;48.716;9.124;2022-11-15T06:35:12;5.70;99.90
2489;DHT22;1255;48.716;9.124;2022-11-15T06:37:41;5.70;99.90
2489;DHT22;1255;48.716;9.124;2022-11-15T06:40:09;5.70;99.90
2489;DHT22;1255;48.716;9.124;2022-11-15T06:42:36;5.70;99.90
2489;DHT22;1255;48.716;9.124;2022-11-15T06:45:03;5.70;99.90
2489;DHT22;1255;48.716;9.124;2022-11-15T06:47:30;5.70;99.90
2489;DHT22;1255;48.716;9.124;2022-11-15T06:49:57;5.80;99.90
2489;DHT22;1255;48.716;9.124;2022-11-15T06:52:23;5.80;99.90
2489;DHT22;1255;48.716;9.124;2022-11-15T06:54:55;5.80;99.90
2489;DHT22;1255;48.716;9.124;2022-11-15T06:57:21;5.80;99.90
2489;DHT22;1255;48.716;9.124;2022-11-15T06:59:48;5.90;99.90
2489;DHT22;1255;48.716;9.124;2022-11-15T07:02:15;5.90;99.90
2489;DHT22;1255;48.716;9.124;2022-11-15T07:04:41;5.90;99.90
2489;DHT22;1255;48.716;9.124;2022-11-15T07:07:09;6.00;99.90
2489;DHT22;1255;48.716;9.124;2022-11-15T07:09:35;6.00;99.90
2489;DHT22;1255;48.716;9.124;2022-11-15T07:12:04;6.10;99.90
2489;DHT22;1255;48.716;9.124;2022-11-15T07:14:31;6.10;99.90
2489;DHT22;1255;48.716;9.124;2022-11-15T07:16:58;6.10;99.90
2489;DHT22;1255;48.716;9.124;2022-11-15T07:19:25;6.20;99.90
2489;DHT22;1255;48.716;9.124;2022-11-15T07:21:51;6.20;99.90
2489;DHT22;1255;48.716;9.124;2022-11-15T07:24:18;6.30;99.90
2489;DHT22;1255;48.716;9.124;2022-11-15T07:26:45;6.30;99.90
2489;DHT22;1255;48.716;9.124;2022-11-15T07:29:13;6.40;99.90
2489;DHT22;1255;48.716;9.124;2022-11-15T07:31:40;6.40;99.90
2489;DHT22;1255;48.716;9.124;2022-11-15T07:34:06;6.50;99.90
2489;DHT22;1255;48.716;9.124;2022-11-15T07:36:33;6.70;99.90
2489;DHT22;1255;48.716;9.124;2022-11-15T07:39:00;6.80;99.90
2489;DHT22;1255;48.716;9.124;2022-11-15T07:41:28;7.10;99.90
2489;DHT22;1255;48.716;9.124;2022-11-15T07:43:55;7.30;99.90
2489;DHT22;1255;48.716;9.124;2022-11-15T07:46:24;7.50;99.90
2489;DHT22;1255;48.716;9.124;2022-11-15T07:48:51;7.70;99.90
2489;DHT22;1255;48.716;9.124;2022-11-15T07:51:17;7.80;99.90
2489;DHT22;1255;48.716;9.124;2022-11-15T07:53:44;7.90;99.90
2489;DHT22;1255;48.716;9.124;2022-11-15T07:56:11;8.10;99.90
2489;DHT22;1255;48.716;9.124;2022-11-15T07:58:38;8.30;99.90
2489;DHT22;1255;48.716;9.124;2022-11-15T08:01:05;8.50;99.90
2489;DHT22;1255;48.716;9.124;2022-11-15T08:03:34;8.60;99.90
2489;DHT22;1255;48.716;9.124;2022-11-15T08:06:01;8.80;99.90
2489;DHT22;1255;48.716;9.124;2022-11-15T08:08:28;8.90;99.90
2489;DHT22;1255;48.716;9.124;2022-11-15T08:10:57;9.10;99.90
2489;DHT22;1255;48.716;9.124;2022-11-15T08:13:24;9.30;99.90
2489;DHT22;1255;48.716;9.124;2022-11-15T08:15:50;9.40;99.90
2489;DHT22;1255;48.716;9.124;2022-11-15T08:18:17;9.80;99.90
2489;DHT22;1255;48.716;9.124;2022-11-15T08:20:45;10.00;99.90
2489;DHT22;1255;48.716;9.124;2022-11-15T08:23:12;10.20;99.90
2489;DHT22;1255;48.716;9.124;2022-11-15T08:25:39;10.50;99.90
2489;DHT22;1255;48.716;9.124;2022-11-15T08:28:07;11.10;99.90
2489;DHT22;1255;48.716;9.124;2022-11-15T08:30:37;11.60;99.90
2489;DHT22;1255;48.716;9.124;2022-11-15T08:33:04;12.10;99.90
2489;DHT22;1255;48.716;9.124;2022-11-15T08:35:31;12.40;99.90
2489;DHT22;1255;48.716;9.124;2022-11-15T08:37:59;12.50;99.90
2489;DHT22;1255;48.716;9.124;2022-11-15T08:40:25;12.80;99.90
2489;DHT22;1255;48.716;9.124;2022-11-15T08:42:52;13.00;99.90
2489;DHT22;1255;48.716;9.124;2022-11-15T08:45:20;13.60;99.90
2489;DHT22;1255;48.716;9.124;2022-11-15T08:47:46;14.30;99.90
2489;DHT22;1255;48.716;9.124;2022-11-15T08:50:13;15.40;99.90
2489;DHT22;1255;48.716;9.124;2022-11-15T08:52:40;16.60;99.90
2489;DHT22;1255;48.716;9.124;2022-11-15T08:55:09;17.30;99.90
2489;DHT22;1255;48.716;9.124;2022-11-15T08:57:36;17.10;99.90
2489;DHT22;1255;48.716;9.124;2022-11-15T09:00:05;17.40;99.90
2489;DHT22;1255;48.716;9.124;2022-11-15T09:02:32;17.70;99.90
2489;DHT22;1255;48.716;9.124;2022-11-15T09:04:59;18.00;99.90
2489;DHT22;1255;48.716;9.124;2022-11-15T09:07:27;18.40;99.90
2489;DHT22;1255;48.716;9.124;2022-11-15T09:09:55;18.80;99.90
2489;DHT22;1255;48.716;9.124;2022-11-15T09:12:23;18.80;99.90
2489;DHT22;1255;48.716;9.124;2022-11-15T09:14:51;18.30;99.90
2489;DHT22;1255;48.716;9.124;2022-11-15T09:17:17;17.50;99.90
2489;DHT22;1255;48.716;9.124;2022-11-15T09:19:44;16.80;99.90
2489;DHT22;1255;48.716;9.124;2022-11-15T09:22:11;16.10;99.90
2489;DHT22;1255;48.716;9.124;2022-11-15T09:24:38;15.70;99.90
2489;DHT22;1255;48.716;9.124;2022-11-15T09:27:07;15.40;99.90
2489;DHT22;1255;48.716;9.124;2022-11-15T09:29:35;15.30;99.90
2489;DHT22;1255;48.716;9.124;2022-11-15T09:32:02;15.10;99.90
2489;DHT22;1255;48.716;9.124;2022-11-15T09:34:29;15.30;99.90
2489;DHT22;1255;48.716;9.124;2022-11-15T09:36:56;15.80;99.90
2489;DHT22;1255;48.716;9.124;2022-11-15T09:39:22;15.80;99.90
2489;DHT22;1255;48.716;9.124;2022-11-15T09:44:59;16.40;99.90
2489;DHT22;1255;48.716;9.124;2022-11-15T09:47:56;16.80;99.90
2489;DHT22;1255;48.716;9.124;2022-11-15T09:50:32;16.70;99.90
2489;DHT22;1255;48.716;9.124;2022-11-15T09:53:00;16.10;99.90
2489;DHT22;1255;48.716;9.124;2022-11-15T09:55:46;15.80;99.90
2489;DHT22;1255;48.716;9.124;2022-11-15T09:58:22;15.70;99.90
2489;DHT22;1255;48.716;9.124;2022-11-15T10:00:53;15.80;99.90
2489;DHT22;1255;48.716;9.124;2022-11-15T10:03:26;15.80;99.90
2489;DHT22;1255;48.716;9.124;2022-11-15T10:05:56;15.40;99.90
2489;DHT22;1255;48.716;9.124;2022-11-15T10:08:47;15.00;99.90
2489;DHT22;1255;48.716;9.124;2022-11-15T10:11:17;14.70;99.90
2489;DHT22;1255;48.716;9.124;2022-11-15T10:13:47;14.50;99.90
2489;DHT22;1255;48.716;9.124;2022-11-15T10:19:23;14.30;99.90
2489;DHT22;1255;48.716;9.124;2022-11-15T10:22:00;14.30;99.90
2489;DHT22;1255;48.716;9.124;2022-11-15T10:24:34;14.30;99.90
2489;DHT22;1255;48.716;9.124;2022-11-15T10:27:08;14.40;99.90
2489;DHT22;1255;48.716;9.124;2022-11-15T10:29:43;14.40;99.90
2489;DHT22;1255;48.716;9.124;2022-11-15T10:32:12;14.60;99.90
2489;DHT22;1255;48.716;9.124;2022-11-15T10:34:39;14.90;99.90
2489;DHT22;1255;48.716;9.124;2022-11-15T10:37:06;15.00;99.90
2489;DHT22;1255;48.716;9.124;2022-11-15T10:42:43;15.00;99.90
2489;DHT22;1255;48.716;9.124;2022-11-15T10:45:23;14.90;99.90
2489;DHT22;1255;48.716;9.124;2022-11-15T10:47:52;14.80;99.90
2489;DHT22;1255;48.716;9.124;2022-11-15T10:50:28;14.60;99.90
2489;DHT22;1255;48.716;9.124;2022-11-15T10:52:55;14.50;99.90
2489;DHT22;1255;48.716;9.124;2022-11-15T10:55:28;14.20;99.90
2489;DHT22;1255;48.716;9.124;2022-11-15T10:58:02;14.10;99.90
2489;DHT22;1255;48.716;9.124;2022-11-15T11:00:33;14.00;99.90
2489;DHT22;1255;48.716;9.124;2022-11-15T11:03:04;13.90;99.90
2489;DHT22;1255;48.716;9.124;2022-11-15T11:05:34;13.80;99.90
2489;DHT22;1255;48.716;9.124;2022-11-15T11:08:04;13.80;99.90
2489;DHT22;1255;48.716;9.124;2022-11-15T11:10:31;13.70;99.90
2489;DHT22;1255;48.716;9.124;2022-11-15T11:13:13;13.60;99.90
2489;DHT22;1255;48.716;9.124;2022-11-15T11:15:44;13.60;99.90
2489;DHT22;1255;48.716;9.124;2022-11-15T11:18:19;13.50;99.90
2489;DHT22;1255;48.716;9.124;2022-11-15T11:20:53;13.60;99.90
2489;DHT22;1255;48.716;9.124;2022-11-15T11:23:38;13.60;99.90
2489;DHT22;1255;48.716;9.124;2022-11-15T11:26:18;13.70;99.90
2489;DHT22;1255;48.716;9.124;2022-11-15T11:28:59;13.80;99.90
2489;DHT22;1255;48.716;9.124;2022-11-15T11:31:32;13.80;99.90
2489;DHT22;1255;48.716;9.124;2022-11-15T11:34:12;13.90;99.90
2489;DHT22;1255;48.716;9.124;2022-11-15T11:36:45;13.90;99.90
2489;DHT22;1255;48.716;9.124;2022-11-15T11:39:25;13.80;99.90
2489;DHT22;1255;48.716;9.124;2022-11-15T11:42:00;13.90;99.90
2489;DHT22;1255;48.716;9.124;2022-11-15T11:44:35;13.90;99.90
2489;DHT22;1255;48.716;9.124;2022-11-15T11:47:07;13.90;99.90
2489;DHT22;1255;48.716;9.124;2022-11-15T11:49:43;14.10;99.90
2489;DHT22;1255;48.716;9.124;2022-11-15T11:52:15;14.10;99.90
2489;DHT22;1255;48.716;9.124;2022-11-15T11:54:51;14.20;99.90
2489;DHT22;1255;48.716;9.124;2022-11-15T11:57:28;14.20;99.90
2489;DHT22;1255;48.716;9.124;2022-11-15T12:00:02;14.30;99.90
2489;DHT22;1255;48.716;9.124;2022-11-15T12:02:33;14.50;99.90
2489;DHT22;1255;48.716;9.124;2022-11-15T12:05:11;14.70;99.90
2489;DHT22;1255;48.716;9.124;2022-11-15T12:07:40;14.90;99.90
2489;DHT22;1255;48.716;9.124;2022-11-15T12:10:17;15.10;99.90
2489;DHT22;1255;48.716;9.124;2022-11-15T12:12:52;15.00;99.90
2489;DHT22;1255;48.716;9.124;2022-11-15T12:15:23;14.90;99.90
2489;DHT22;1255;48.716;9.124;2022-11-15T12:17:51;14.70;99.90
2489;DHT22;1255;48.716;9.124;2022-11-15T12:20:21;14.60;99.90
2489;DHT22;1255;48.716;9.124;2022-11-15T12:22:53;14.60;99.90
2489;DHT22;1255;48.716;9.124;2022-11-15T12:25:26;14.50;99.90
2489;DHT22;1255;48.716;9.124;2022-11-15T12:27:57;14.40;99.90
2489;DHT22;1255;48.716;9.124;2022-11-15T12:30:30;14.40;99.90
2489;DHT22;1255;48.716;9.124;2022-11-15T12:33:03;14.30;99.90
2489;DHT22;1255;48.716;9.124;2022-11-15T12:35:35;14.20;99.90
2489;DHT22;1255;48.716;9.124;2022-11-15T12:38:04;14.10;99.90
2489;DHT22;1255;48.716;9.124;2022-11-15T12:40:36;14.00;99.90
2489;DHT22;1255;48.716;9.124;2022-11-15T12:46:03;13.90;99.90
2489;DHT22;1255;48.716;9.124;2022-11-15T12:48:48;13.80;99.90
2489;DHT22;1255;48.716;9.124;2022-11-15T12:51:20;13.80;99.90
2489;DHT22;1255;48.716;9.124;2022-11-15T12:53:46;13.80;99.90
2489;DHT22;1255;48.716;9.124;2022-11-15T12:56:23;13.80;99.90
2489;DHT22;1255;48.716;9.124;2022-11-15T12:58:54;13.80;99.90
2489;DHT22;1255;48.716;9.124;2022-11-15T13:01:55;13.80;99.90
2489;DHT22;1255;48.716;9.124;2022-11-15T13:04:27;13.80;99.90
2489;DHT22;1255;48.716;9.124;2022-11-15T13:06:58;13.70;99.90
2489;DHT22;1255;48.716;9.124;2022-11-15T13:09:50;13.60;99.90
2489;DHT22;1255;48.716;9.124;2022-11-15T13:15:33;13.40;99.90
2489;DHT22;1255;48.716;9.124;2022-11-15T13:18:31;13.40;99.90
2489;DHT22;1255;48.716;9.124;2022-11-15T13:20:58;13.40;99.90
2489;DHT22;1255;48.716;9.124;2022-11-15T13:23:26;13.40;99.90
2489;DHT22;1255;48.716;9.124;2022-11-15T13:26:10;13.40;99.90
2489;DHT22;1255;48.716;9.124;2022-11-15T13:28:42;13.40;99.90
2489;DHT22;1255;48.716;9.124;2022-11-15T13:31:29;13.50;99.90
2489;DHT22;1255;48.716;9.124;2022-11-15T13:34:00;13.60;99.90
2489;DHT22;1255;48.716;9.124;2022-11-15T13:36:30;13.50;99.90
2489;DHT22;1255;48.716;9.124;2022-11-15T13:39:01;13.50;99.90
2489;DHT22;1255;48.716;9.124;2022-11-15T13:41:30;13.50;99.90
2489;DHT22;1255;48.716;9.124;2022-11-15T13:43:58;13.50;99.90
2489;DHT22;1255;48.716;9.124;2022-11-15T13:46:26;13.50;99.90
2489;DHT22;1255;48.716;9.124;2022-11-15T13:48:58;13.40;99.90
2489;DHT22;1255;48.716;9.124;2022-11-15T13:51:33;13.40;99.90
2489;DHT22;1255;48.716;9.124;2022-11-15T13:54:09;13.40;99.90
2489;DHT22;1255;48.716;9.124;2022-11-15T13:56:42;13.40;99.90
2489;DHT22;1255;48.716;9.124;2022-11-15T13:59:14;13.40;99.90
2489;DHT22;1255;48.716;9.124;2022-11-15T14:01:42;13.30;99.90
2489;DHT22;1255;48.716;9.124;2022-11-15T14:04:13;13.20;99.90
2489;DHT22;1255;48.716;9.124;2022-11-15T14:06:45;13.20;99.90
2489;DHT22;1255;48.716;9.124;2022-11-15T14:09:39;13.10;99.90
2489;DHT22;1255;48.716;9.124;2022-11-15T14:12:31;13.00;99.90
2489;DHT22;1255;48.716;9.124;2022-11-15T14:14:59;12.90;99.90
2489;DHT22;1255;48.716;9.124;2022-11-15T14:17:35;12.90;99.90
2489;DHT22;1255;48.716;9.124;2022-11-15T14:22:51;12.80;99.90
2489;DHT22;1255;48.716;9.124;2022-11-15T14:25:23;12.80;99.90
2489;DHT22;1255;48.716;9.124;2022-11-15T14:28:14;12.80;99.90
2489;DHT22;1255;48.716;9.124;2022-11-15T14:30:43;12.80;99.90
2489;DHT22;1255;48.716;9.124;2022-11-15T14:33:22;12.80;99.90
2489;DHT22;1255;48.716;9.124;2022-11-15T14:35:50;12.80;99.90
2489;DHT22;1255;48.716;9.124;2022-11-15T14:38:16;12.70;99.90
2489;DHT22;1255;48.716;9.124;2022-11-15T14:40:45;12.60;99.90
2489;DHT22;1255;48.716;9.124;2022-11-15T14:43:12;12.60;99.90
2489;DHT22;1255;48.716;9.124;2022-11-15T14:45:39;12.50;99.90
2489;DHT22;1255;48.716;9.124;2022-11-15T14:48:06;12.50;99.90
2489;DHT22;1255;48.716;9.124;2022-11-15T14:50:33;12.50;99.90
2489;DHT22;1255;48.716;9.124;2022-11-15T14:53:01;12.50;99.90
2489;DHT22;1255;48.716;9.124;2022-11-15T14:55:29;12.50;99.90
2489;DHT22;1255;48.716;9.124;2022-11-15T14:57:59;12.40;99.90
2489;DHT22;1255;48.716;9.124;2022-11-15T15:00:27;12.40;99.90
2489;DHT22;1255;48.716;9.124;2022-11-15T15:02:54;12.30;99.90
2489;DHT22;1255;48.716;9.124;2022-11-15T15:05:25;12.20;99.90
2489;DHT22;1255;48.716;9.124;2022-11-15T15:07:52;12.20;99.90
2489;DHT22;1255;48.716;9.124;2022-11-15T15:10:19;12.10;99.90
2489;DHT22;1255;48.716;9.124;2022-11-15T15:12:47;12.00;99.90
2489;DHT22;1255;48.716;9.124;2022-11-15T15:15:17;12.00;99.90
2489;DHT22;1255;48.716;9.124;2022-11-15T15:17:45;12.00;99.90
2489;DHT22;1255;48.716;9.124;2022-11-15T15:20:12;11.90;99.90
2489;DHT22;1255;48.716;9.124;2022-11-15T15:22:39;11.90;99.90
2489;DHT22;1255;48.716;9.124;2022-11-15T15:25:21;11.90;99.90
2489;DHT22;1255;48.716;9.124;2022-11-15T15:27:49;11.80;99.90
2489;DHT22;1255;48.716;9.124;2022-11-15T15:30:17;11.80;99.90
2489;DHT22;1255;48.716;9.124;2022-11-15T15:32:44;11.70;99.90
2489;DHT22;1255;48.716;9.124;2022-11-15T15:35:12;11.60;99.90
2489;DHT22;1255;48.716;9.124;2022-11-15T15:37:40;11.50;99.90
2489;DHT22;1255;48.716;9.124;2022-11-15T15:40:13;11.50;99.90
2489;DHT22;1255;48.716;9.124;2022-11-15T15:42:40;11.40;99.90
2489;DHT22;1255;48.716;9.124;2022-11-15T15:45:08;11.30;99.90
2489;DHT22;1255;48.716;9.124;2022-11-15T15:47:36;11.30;99.90
2489;DHT22;1255;48.716;9.124;2022-11-15T15:50:05;11.30;99.90
2489;DHT22;1255;48.716;9.124;2022-11-15T15:52:38;11.20;99.90
2489;DHT22;1255;48.716;9.124;2022-11-15T15:55:05;11.20;99.90
2489;DHT22;1255;48.716;9.124;2022-11-15T15:57:32;11.20;99.90
2489;DHT22;1255;48.716;9.124;2022-11-15T15:59:59;11.20;99.90
2489;DHT22;1255;48.716;9.124;2022-11-15T16:02:26;11.20;99.90
2489;DHT22;1255;48.716;9.124;2022-11-15T16:04:54;11.10;99.90
2489;DHT22;1255;48.716;9.124;2022-11-15T16:07:21;11.10;99.90
2489;DHT22;1255;48.716;9.124;2022-11-15T16:09:49;11.10;99.90
2489;DHT22;1255;48.716;9.124;2022-11-15T16:12:29;11.10;99.90
2489;DHT22;1255;48.716;9.124;2022-11-15T16:14:56;11.10;99.90
2489;DHT22;1255;48.716;9.124;2022-11-15T16:17:24;11.10;99.90
2489;DHT22;1255;48.716;9.124;2022-11-15T16:19:51;11.10;99.90
2489;DHT22;1255;48.716;9.124;2022-11-15T16:22:19;11.10;99.90
2489;DHT22;1255;48.716;9.124;2022-11-15T16:24:46;11.00;99.90
2489;DHT22;1255;48.716;9.124;2022-11-15T16:27:14;11.00;99.90
2489;DHT22;1255;48.716;9.124;2022-11-15T16:29:41;11.00;99.90
2489;DHT22;1255;48.716;9.124;2022-11-15T16:32:08;11.00;99.90
2489;DHT22;1255;48.716;9.124;2022-11-15T16:34:35;11.00;99.90
2489;DHT22;1255;48.716;9.124;2022-11-15T16:37:02;10.90;99.90
2489;DHT22;1255;48.716;9.124;2022-11-15T16:39:31;10.90;99.90
2489;DHT22;1255;48.716;9.124;2022-11-15T16:41:58;10.90;99.90
2489;DHT22;1255;48.716;9.124;2022-11-15T16:44:25;10.80;99.90
2489;DHT22;1255;48.716;9.124;2022-11-15T16:46:52;10.80;99.90
2489;DHT22;1255;48.716;9.124;2022-11-15T16:49:20;10.80;99.90
2489;DHT22;1255;48.716;9.124;2022-11-15T16:51:48;10.80;99.90